Time;durP1;ratioP1;P1;durP2;ratioP2;P2;SDS_P1;SDS_P2;PMS_P1;PMS_P2;Temp;Humidity;BMP_temperature;BMP_pressure;BME280_temperature;BME280_humidity;BME280_pressure;Samples;Min_cycle;Max_cycle;Signal;HPM_P1;HPM_P2
2021/03/19 00:01:30;;;;;;;45.10;20.97;;;-1.70;99.90;;;;;;5034863;28;20187;-86
2021/03/19 00:03:56;;;;;;;41.63;20.40;;;-1.60;99.90;;;;;;5035479;28;20243;-85
2021/03/19 00:06:23;;;;;;;43.93;23.10;;;-1.30;99.90;;;;;;5035895;28;20173;-85
2021/03/19 00:08:48;;;;;;;43.43;21.67;;;-0.60;99.90;;;;;;5036172;28;20698;-86
2021/03/19 00:11:15;;;;;;;46.77;20.20;;;-1.60;99.90;;;;;;5035972;28;20181;-86
2021/03/19 00:13:40;;;;;;;44.87;22.93;;;-1.60;99.90;;;;;;5036313;28;20203;-86
2021/03/19 00:16:07;;;;;;;48.20;21.97;;;-0.30;99.90;;;;;;5035743;28;20622;-86
2021/03/19 00:18:33;;;;;;;56.13;26.03;;;-1.50;99.90;;;;;;5034550;28;20176;-85
2021/03/19 00:20:59;;;;;;;44.07;21.07;;;-1.50;99.90;;;;;;5035598;28;20178;-85
2021/03/19 00:23:24;;;;;;;48.30;22.07;;;0.00;99.90;;;;;;5002060;28;20184;-86
2021/03/19 00:25:50;;;;;;;48.57;21.40;;;-1.20;99.90;;;;;;5035796;28;20184;-85
2021/03/19 00:28:16;;;;;;;55.93;23.97;;;-1.60;99.90;;;;;;5035559;28;20207;-85
2021/03/19 00:30:43;;;;;;;55.37;22.07;;;-0.30;99.90;;;;;;5035996;28;20187;-86
2021/03/19 00:33:10;;;;;;;53.77;22.47;;;0.40;99.90;;;;;;5035346;28;20260;-86
2021/03/19 00:35:35;;;;;;;53.30;25.07;;;-1.60;99.90;;;;;;5035613;28;20209;-86
2021/03/19 00:38:02;;;;;;;52.77;24.27;;;-1.60;99.90;;;;;;5035371;28;20185;-85
2021/03/19 00:40:28;;;;;;;50.03;23.63;;;-1.00;99.90;;;;;;5035581;28;20177;-86
2021/03/19 00:42:54;;;;;;;55.07;24.43;;;-1.70;99.90;;;;;;5035539;28;20184;-86
2021/03/19 00:45:19;;;;;;;55.63;24.77;;;-0.10;99.90;;;;;;5033744;28;20254;-86
2021/03/19 00:47:45;;;;;;;62.17;25.27;;;-0.70;99.90;;;;;;5034150;28;20272;-86
2021/03/19 00:50:15;;;;;;;55.30;24.67;;;0.00;99.90;;;;;;5034793;28;20584;-85
2021/03/19 00:52:41;;;;;;;59.60;26.30;;;-1.60;99.90;;;;;;5035351;28;20176;-85
2021/03/19 00:55:10;;;;;;;57.87;27.07;;;-1.60;99.90;;;;;;5034905;28;20300;-85
2021/03/19 00:57:36;;;;;;;51.80;26.03;;;-1.70;99.90;;;;;;5035209;28;20181;-85
2021/03/19 01:00:06;;;;;;;58.80;27.17;;;-0.40;99.90;;;;;;5017496;28;20183;-85
2021/03/19 01:02:32;;;;;;;53.63;26.90;;;-1.70;99.90;;;;;;5035016;28;20165;-85
2021/03/19 01:04:57;;;;;;;59.67;25.67;;;-1.80;99.90;;;;;;5016747;28;20242;-85
2021/03/19 01:07:23;;;;;;;52.00;20.93;;;-1.10;99.90;;;;;;5033420;28;20196;-85
2021/03/19 01:09:49;;;;;;;54.50;23.67;;;-0.50;99.90;;;;;;5035170;28;20251;-85
2021/03/19 01:12:15;;;;;;;48.90;21.40;;;-1.50;99.90;;;;;;5034660;28;20180;-85
2021/03/19 01:14:41;;;;;;;54.37;24.07;;;-1.80;99.90;;;;;;5033689;28;20777;-85
2021/03/19 01:17:06;;;;;;;63.57;24.77;;;-1.80;99.90;;;;;;5033490;28;20275;-84
2021/03/19 01:19:33;;;;;;;51.23;22.03;;;-0.60;99.90;;;;;;5034578;28;20180;-85
2021/03/19 01:21:58;;;;;;;59.87;23.87;;;-1.00;99.90;;;;;;5033671;28;20184;-85
2021/03/19 01:24:24;;;;;;;51.03;22.80;;;-1.80;99.90;;;;;;5034425;28;20181;-85
2021/03/19 01:26:50;;;;;;;57.97;28.17;;;-0.60;99.90;;;;;;5033487;28;20193;-86
2021/03/19 01:29:15;;;;;;;57.07;26.17;;;-1.90;99.90;;;;;;5034314;28;20185;-86
2021/03/19 01:31:41;;;;;;;55.97;22.97;;;-1.90;99.90;;;;;;5016885;28;20180;-86
2021/03/19 01:34:07;;;;;;;54.33;21.63;;;-0.60;99.90;;;;;;5033932;28;20292;-84
2021/03/19 01:36:32;;;;;;;47.00;20.97;;;-0.30;99.90;;;;;;5000819;28;20654;-86
2021/03/19 01:38:58;;;;;;;47.90;23.37;;;-1.90;99.90;;;;;;5033162;28;20186;-86
2021/03/19 01:41:23;;;;;;;49.30;20.13;;;0.00;99.90;;;;;;5033861;28;20223;-85
2021/03/19 01:44:09;;;;;;;49.23;22.70;;;-0.10;99.90;;;;;;5034367;28;20340;-86
2021/03/19 01:47:12;;;;;;;49.23;21.27;;;-1.80;99.90;;;;;;5034060;28;20157;-86
2021/03/19 01:50:15;;;;;;;51.67;20.40;;;-1.80;99.90;;;;;;5032917;28;20634;-86
2021/03/19 01:53:18;;;;;;;42.43;17.07;;;-1.80;99.90;;;;;;5033869;28;20642;-87
2021/03/19 01:56:21;;;;;;;46.90;20.90;;;-1.80;99.90;;;;;;5033820;28;20230;-87
2021/03/19 01:59:24;;;;;;;43.90;19.63;;;-1.80;99.90;;;;;;5032840;28;20191;-86
2021/03/19 02:02:28;;;;;;;55.33;23.10;;;-1.70;99.90;;;;;;5032709;28;20272;-85
2021/03/19 02:05:31;;;;;;;53.97;21.90;;;-1.70;99.90;;;;;;5032213;28;20237;-85
2021/03/19 02:08:34;;;;;;;54.63;21.87;;;-1.70;99.90;;;;;;5032568;28;20696;-85
2021/03/19 02:11:38;;;;;;;51.47;21.47;;;-1.70;99.90;;;;;;5033872;28;20180;-86
2021/03/19 02:14:41;;;;;;;56.27;22.23;;;-1.80;99.90;;;;;;5010064;28;20213;-86
2021/03/19 02:17:45;;;;;;;67.20;25.07;;;-1.70;99.90;;;;;;5032152;28;20191;-86
2021/03/19 02:20:48;;;;;;;59.73;25.23;;;-1.60;99.90;;;;;;5033668;28;20179;-84
2021/03/19 02:23:51;;;;;;;64.73;25.07;;;-1.60;99.90;;;;;;5033140;28;20176;-84
2021/03/19 02:26:54;;;;;;;70.00;27.20;;;-1.60;99.90;;;;;;5031966;28;20263;-85
2021/03/19 02:29:57;;;;;;;65.73;25.57;;;-1.60;99.90;;;;;;5031702;28;20196;-85
2021/03/19 02:32:24;;;;;;;56.20;23.47;;;-1.60;99.90;;;;;;5032898;28;20172;-85
2021/03/19 02:35:04;;;;;;;62.20;22.70;;;-0.20;99.90;;;;;;5033303;28;20222;-85
2021/03/19 02:37:33;;;;;;;56.60;21.13;;;-1.50;99.90;;;;;;5032886;28;20538;-86
2021/03/19 02:39:59;;;;;;;56.40;22.63;;;-1.40;99.90;;;;;;5033349;28;20197;-86
2021/03/19 02:42:29;;;;;;;51.40;20.70;;;-1.40;99.90;;;;;;5031636;28;20177;-86
2021/03/19 02:44:56;;;;;;;55.60;23.47;;;-1.40;99.90;;;;;;5033329;28;20181;-86
2021/03/19 02:47:22;;;;;;;51.80;22.13;;;-1.40;99.90;;;;;;5033326;28;20176;-86
2021/03/19 02:49:48;;;;;;;57.10;23.93;;;-0.50;99.90;;;;;;5015624;28;20204;-86
2021/03/19 02:52:15;;;;;;;48.30;20.37;;;-1.30;99.90;;;;;;5031931;28;20263;-86
2021/03/19 02:54:41;;;;;;;52.97;21.23;;;0.50;99.90;;;;;;5031731;28;20224;-86
2021/03/19 02:57:07;;;;;;;56.03;24.10;;;-1.30;99.90;;;;;;5033426;28;20267;-85
2021/03/19 02:59:33;;;;;;;56.80;23.13;;;-1.30;99.90;;;;;;5031638;28;20188;-85
2021/03/19 03:01:58;;;;;;;60.57;21.40;;;-1.30;99.90;;;;;;5031736;28;20280;-86
2021/03/19 03:04:24;;;;;;;64.53;24.10;;;-0.10;99.90;;;;;;5032377;28;20716;-85
2021/03/19 03:06:53;;;;;;;55.73;21.13;;;-0.30;99.90;;;;;;5033100;28;20189;-86
2021/03/19 03:09:30;;;;;;;60.57;23.80;;;-1.30;99.90;;;;;;5032823;28;20185;-86
2021/03/19 03:11:57;;;;;;;76.40;27.30;;;0.20;99.90;;;;;;5032054;28;20241;-86
2021/03/19 03:14:26;;;;;;;67.73;24.63;;;-1.30;99.90;;;;;;5015019;28;20712;-85
2021/03/19 03:16:52;;;;;;;54.07;22.17;;;-1.30;99.90;;;;;;5031727;28;20248;-85
2021/03/19 03:19:22;;;;;;;49.37;20.53;;;-1.20;99.90;;;;;;5031642;28;20181;-85
2021/03/19 03:21:47;;;;;;;51.57;21.13;;;-0.50;99.90;;;;;;5032704;28;20173;-85
2021/03/19 03:24:14;;;;;;;55.67;22.00;;;-1.20;99.90;;;;;;5031561;28;20285;-86
2021/03/19 03:26:41;;;;;;;55.53;22.70;;;-0.10;99.90;;;;;;5032527;28;20188;-86
2021/03/19 03:29:08;;;;;;;63.53;23.23;;;-0.80;99.90;;;;;;5035013;28;20650;-86
2021/03/19 03:31:36;;;;;;;47.77;19.70;;;-1.20;99.90;;;;;;5036295;28;20178;-85
2021/03/19 03:34:02;;;;;;;54.57;21.63;;;0.70;99.90;;;;;;5036757;28;20203;-85
2021/03/19 03:36:28;;;;;;;47.47;21.03;;;-1.10;99.90;;;;;;5038671;28;20177;-85
2021/03/19 03:38:53;;;;;;;50.80;20.60;;;-1.10;99.90;;;;;;5036785;28;20174;-86
2021/03/19 03:41:24;;;;;;;59.37;22.37;;;0.20;99.90;;;;;;5035413;28;20527;-86
2021/03/19 03:43:50;;;;;;;73.23;24.60;;;-1.10;99.90;;;;;;5035457;28;20173;-86
2021/03/19 03:46:19;;;;;;;84.07;26.57;;;-1.10;99.90;;;;;;5036249;28;20204;-86
2021/03/19 03:48:45;;;;;;;71.33;25.90;;;-1.10;99.90;;;;;;5036277;28;20203;-86
2021/03/19 03:51:11;;;;;;;80.20;26.97;;;-1.10;99.90;;;;;;5035239;28;20178;-86
2021/03/19 03:53:40;;;;;;;78.40;28.10;;;-0.50;99.90;;;;;;5034893;28;20182;-86
2021/03/19 03:56:07;;;;;;;70.57;25.90;;;-0.30;99.90;;;;;;5035078;28;20190;-86
2021/03/19 03:58:33;;;;;;;65.93;24.47;;;0.80;99.90;;;;;;5034805;28;20174;-86
2021/03/19 04:00:59;;;;;;;75.77;24.87;;;-0.10;99.90;;;;;;5036685;28;20525;-85
2021/03/19 04:03:25;;;;;;;64.17;24.47;;;-1.10;99.90;;;;;;5034764;28;20552;-85
2021/03/19 04:05:51;;;;;;;69.73;27.27;;;-0.20;99.90;;;;;;5034857;28;20243;-87
2021/03/19 04:08:20;;;;;;;67.23;25.17;;;0.40;99.90;;;;;;5034954;28;20189;-86
2021/03/19 04:10:47;;;;;;;68.57;26.13;;;-1.10;99.90;;;;;;5034522;28;20184;-86
2021/03/19 04:13:14;;;;;;;61.93;23.73;;;-1.20;99.90;;;;;;5018570;28;20197;-87
2021/03/19 04:15:41;;;;;;;58.60;22.10;;;-1.10;99.90;;;;;;5034362;28;20242;-87
2021/03/19 04:18:12;;;;;;;54.90;22.00;;;0.30;99.90;;;;;;5035099;28;20189;-86
2021/03/19 04:20:39;;;;;;;56.27;23.57;;;-1.10;99.90;;;;;;5034384;28;20223;-85
2021/03/19 04:23:05;;;;;;;47.60;20.33;;;-1.10;99.90;;;;;;5001988;28;20586;-86
2021/03/19 04:25:32;;;;;;;51.10;22.20;;;-0.80;99.90;;;;;;5034218;28;20223;-87
2021/03/19 04:28:00;;;;;;;59.63;21.07;;;-1.00;99.90;;;;;;5034669;28;20188;-86
2021/03/19 04:30:29;;;;;;;47.97;21.27;;;0.70;99.90;;;;;;5034496;28;20180;-85
2021/03/19 04:32:57;;;;;;;54.10;21.37;;;0.70;99.90;;;;;;5035602;28;20183;-86
2021/03/19 04:35:23;;;;;;;47.10;20.10;;;0.40;99.90;;;;;;5035557;28;20201;-86
2021/03/19 04:37:51;;;;;;;46.83;20.43;;;-0.90;99.90;;;;;;5034211;28;20189;-86
2021/03/19 04:40:18;;;;;;;47.67;21.63;;;-0.90;99.90;;;;;;5017353;28;20190;-86
2021/03/19 04:42:43;;;;;;;56.93;22.17;;;-0.90;99.90;;;;;;5033969;28;20204;-86
2021/03/19 04:45:12;;;;;;;53.37;20.80;;;-0.60;99.90;;;;;;5034328;28;20269;-86
2021/03/19 04:47:38;;;;;;;48.67;20.87;;;-0.90;99.90;;;;;;5033748;28;20185;-86
2021/03/19 04:50:07;;;;;;;44.20;19.07;;;0.80;99.90;;;;;;5035126;28;20183;-86
2021/03/19 04:52:33;;;;;;;46.23;21.20;;;-0.80;99.90;;;;;;5034031;28;20281;-84
2021/03/19 04:55:01;;;;;;;48.63;20.87;;;0.30;99.90;;;;;;5033982;28;20571;-86
2021/03/19 04:57:27;;;;;;;49.57;22.27;;;1.50;99.90;;;;;;5035281;28;20182;-86
2021/03/19 04:59:53;;;;;;;48.53;20.40;;;-0.80;99.90;;;;;;5033710;28;20512;-86
2021/03/19 05:02:32;;;;;;;44.80;20.33;;;-0.80;99.90;;;;;;5034860;28;20648;-86
2021/03/19 05:04:58;;;;;;;44.67;20.37;;;-0.80;99.90;;;;;;5034522;28;20235;-86
2021/03/19 05:07:23;;;;;;;44.33;20.00;;;0.10;99.90;;;;;;5017532;28;20275;-86
2021/03/19 05:09:49;;;;;;;49.70;22.50;;;-0.80;99.90;;;;;;5034524;28;20180;-86
2021/03/19 05:12:14;;;;;;;57.33;24.60;;;-0.80;99.90;;;;;;5033904;28;20194;-86
2021/03/19 05:14:40;;;;;;;53.33;23.10;;;0.50;99.90;;;;;;5016782;28;20219;-86
2021/03/19 05:17:05;;;;;;;53.83;22.27;;;-0.90;99.90;;;;;;5017140;28;20656;-86
2021/03/19 05:19:31;;;;;;;50.37;23.47;;;1.00;99.90;;;;;;5035145;28;20211;-86
2021/03/19 05:21:58;;;;;;;54.10;24.87;;;-0.90;99.90;;;;;;5016737;28;20190;-86
2021/03/19 05:24:23;;;;;;;51.47;22.83;;;-0.90;99.90;;;;;;5033451;28;20197;-86
2021/03/19 05:26:49;;;;;;;58.10;23.63;;;-0.40;99.90;;;;;;5032927;28;20320;-86
2021/03/19 05:29:15;;;;;;;55.77;24.10;;;0.00;99.90;;;;;;5033424;28;20194;-86
2021/03/19 05:31:41;;;;;;;56.57;24.03;;;-0.70;99.90;;;;;;5033176;28;20274;-85
2021/03/19 05:34:07;;;;;;;51.87;22.97;;;0.60;99.90;;;;;;5033270;28;20218;-86
2021/03/19 05:36:34;;;;;;;51.23;21.70;;;0.60;99.90;;;;;;5034593;28;20184;-86
2021/03/19 05:39:00;;;;;;;58.37;23.10;;;0.10;99.90;;;;;;5034219;28;20237;-86
2021/03/19 05:41:28;;;;;;;45.17;20.20;;;-0.80;99.90;;;;;;5034179;28;20209;-85
2021/03/19 05:43:59;;;;;;;45.50;20.17;;;0.70;99.90;;;;;;5032861;28;20186;-85
2021/03/19 05:46:32;;;;;;;45.27;20.23;;;0.00;99.90;;;;;;5034368;28;20174;-86
2021/03/19 05:49:10;;;;;;;42.67;19.47;;;-0.10;99.90;;;;;;5033707;28;20175;-87
2021/03/19 05:51:41;;;;;;;45.40;20.33;;;-0.70;99.90;;;;;;5031967;28;20271;-86
2021/03/19 05:54:16;;;;;;;49.80;20.87;;;-0.70;99.90;;;;;;5025721;28;20238;-88
2021/03/19 05:56:43;;;;;;;45.60;21.60;;;-0.80;99.90;;;;;;5028035;28;20198;-88
2021/03/19 05:59:09;;;;;;;51.53;22.27;;;-0.80;99.90;;;;;;5030331;28;20205;-90
2021/03/19 06:01:37;;;;;;;47.97;21.13;;;0.50;99.90;;;;;;5031186;28;20189;-89
2021/03/19 06:04:03;;;;;;;50.43;21.43;;;0.20;99.90;;;;;;5031796;28;20329;-89
2021/03/19 06:06:47;;;;;;;50.70;21.73;;;-0.80;99.90;;;;;;5030794;28;20275;-88
2021/03/19 06:09:24;;;;;;;53.87;23.27;;;0.40;99.90;;;;;;5019777;28;20186;-89
2021/03/19 06:11:51;;;;;;;56.30;23.57;;;-0.70;99.90;;;;;;5029998;28;20724;-88
2021/03/19 06:14:18;;;;;;;62.20;26.83;;;0.90;99.90;;;;;;5028593;28;20199;-88
2021/03/19 06:16:47;;;;;;;54.27;25.00;;;1.20;99.90;;;;;;5026015;28;20223;-87
2021/03/19 06:19:25;;;;;;;57.00;24.63;;;0.10;99.90;;;;;;5030176;28;20224;-89
2021/03/19 06:22:16;;;;;;;60.87;25.43;;;-0.60;99.90;;;;;;5030890;28;20335;-91
2021/03/19 06:24:43;;;;;;;60.73;25.80;;;-0.60;99.90;;;;;;5018058;28;20186;-89
2021/03/19 06:27:19;;;;;;;57.33;25.70;;;-0.60;99.90;;;;;;5010592;28;20187;-90
2021/03/19 06:29:50;;;;;;;64.40;26.90;;;0.80;99.90;;;;;;5029774;28;20253;-87
2021/03/19 06:32:19;;;;;;;57.40;24.07;;;1.00;99.90;;;;;;5028444;28;20187;-88
2021/03/19 06:35:10;;;;;;;64.50;28.07;;;-0.50;99.90;;;;;;5029460;28;20251;-88
2021/03/19 06:37:39;;;;;;;62.47;27.07;;;-0.50;99.90;;;;;;5029041;28;20243;-89
2021/03/19 06:40:35;;;;;;;63.10;27.20;;;-0.50;99.90;;;;;;5029019;28;20185;-87
2021/03/19 06:43:30;;;;;;;60.50;24.00;;;-0.50;99.90;;;;;;5029290;28;20222;-88
2021/03/19 06:46:20;;;;;;;63.07;24.23;;;1.50;99.90;;;;;;4995735;28;20189;-89
2021/03/19 06:48:55;;;;;;;59.03;24.60;;;-0.50;99.90;;;;;;5026785;28;20187;-87
2021/03/19 06:51:29;;;;;;;52.77;22.63;;;0.20;99.90;;;;;;5027164;28;20262;-90
2021/03/19 06:54:01;;;;;;;53.30;22.83;;;-0.60;99.90;;;;;;5027547;28;20178;-87
2021/03/19 06:56:27;;;;;;;58.07;25.30;;;-0.50;99.90;;;;;;5030294;28;20183;-88
2021/03/19 06:58:53;;;;;;;66.90;25.73;;;-0.40;99.90;;;;;;5030198;28;20177;-89
2021/03/19 07:01:38;;;;;;;60.37;26.87;;;0.50;99.90;;;;;;5012195;28;20652;-89
2021/03/19 07:04:34;;;;;;;60.33;24.03;;;-0.50;99.90;;;;;;5029989;28;20269;-87
2021/03/19 07:07:09;;;;;;;62.67;25.73;;;-0.50;99.90;;;;;;5028302;28;20554;-89
2021/03/19 07:10:13;;;;;;;67.90;24.60;;;-0.50;99.90;;;;;;5030813;28;20184;-88
2021/03/19 07:13:17;;;;;;;61.63;24.63;;;1.20;99.90;;;;;;5030035;28;20267;-88
2021/03/19 07:15:53;;;;;;;47.80;21.73;;;-0.50;99.90;;;;;;5029836;28;20210;-88
2021/03/19 07:18:22;;;;;;;48.97;20.63;;;-0.50;99.90;;;;;;5024832;28;20216;-88
2021/03/19 07:21:26;;;;;;;55.17;21.83;;;-0.60;99.90;;;;;;5030054;28;20576;-87
2021/03/19 07:24:16;;;;;;;59.67;23.80;;;0.20;99.90;;;;;;5010225;28;20657;-86
2021/03/19 07:26:50;;;;;;;42.13;18.20;;;-0.40;99.90;;;;;;5012203;28;20169;-87
2021/03/19 07:29:36;;;;;;;49.90;20.50;;;0.20;99.90;;;;;;5011277;28;20194;-87
2021/03/19 07:32:01;;;;;;;42.67;21.23;;;-0.40;99.90;;;;;;5011065;28;20541;-87
2021/03/19 07:34:42;;;;;;;40.60;18.23;;;0.90;99.90;;;;;;5012512;28;20211;-87
2021/03/19 07:37:40;;;;;;;41.87;18.37;;;1.30;99.90;;;;;;5021836;28;20176;-85
2021/03/19 07:40:16;;;;;;;46.80;21.73;;;0.00;99.90;;;;;;5017336;28;20251;-86
2021/03/19 07:42:42;;;;;;;34.57;15.63;;;0.20;99.90;;;;;;5016025;28;20693;-88
2021/03/19 07:45:23;;;;;;;38.67;16.73;;;1.50;99.90;;;;;;5021445;28;20263;-87
2021/03/19 07:48:13;;;;;;;38.33;17.30;;;0.30;99.90;;;;;;5022679;28;20618;-85
2021/03/19 07:51:22;;;;;;;36.50;15.80;;;0.30;99.90;;;;;;5022932;28;20614;-86
2021/03/19 07:54:06;;;;;;;41.97;15.70;;;0.50;99.90;;;;;;5014212;28;20202;-86
2021/03/19 07:56:53;;;;;;;41.00;17.83;;;0.70;99.90;;;;;;5022344;28;20180;-86
2021/03/19 07:59:42;;;;;;;43.63;15.87;;;0.50;99.90;;;;;;5020986;28;20178;-85
2021/03/19 08:02:45;;;;;;;32.40;15.80;;;1.40;99.90;;;;;;5021073;28;20267;-85
2021/03/19 08:05:13;;;;;;;36.47;16.90;;;0.40;99.90;;;;;;5012842;28;20315;-85
2021/03/19 08:07:47;;;;;;;39.30;16.70;;;0.50;99.90;;;;;;5020203;28;20315;-86
2021/03/19 08:10:32;;;;;;;35.77;15.43;;;0.50;99.90;;;;;;5019604;28;20170;-86
2021/03/19 08:13:00;;;;;;;30.97;15.43;;;0.40;99.90;;;;;;5011081;28;20618;-85
2021/03/19 08:15:36;;;;;;;27.67;13.97;;;0.40;99.90;;;;;;5012637;28;20294;-86
2021/03/19 08:18:24;;;;;;;34.47;15.67;;;1.80;99.90;;;;;;5014502;28;20252;-86
2021/03/19 08:21:01;;;;;;;25.57;13.43;;;0.20;99.90;;;;;;5015072;28;20676;-86
2021/03/19 08:23:36;;;;;;;27.00;13.20;;;1.40;99.90;;;;;;5015153;28;20219;-86
2021/03/19 08:26:02;;;;;;;31.50;14.40;;;0.10;99.90;;;;;;5015218;28;20169;-85
2021/03/19 08:28:48;;;;;;;32.63;16.00;;;0.90;99.90;;;;;;5015264;28;20693;-86
2021/03/19 08:31:23;;;;;;;33.87;15.77;;;0.50;99.90;;;;;;5015929;28;20195;-86
2021/03/19 08:34:16;;;;;;;32.80;15.23;;;0.30;99.90;;;;;;5013997;28;20184;-85
2021/03/19 08:36:48;;;;;;;35.27;14.67;;;0.30;99.90;;;;;;5014096;28;20185;-85
2021/03/19 08:39:38;;;;;;;32.53;16.00;;;1.10;99.90;;;;;;5015173;28;20649;-85
2021/03/19 08:42:14;;;;;;;38.17;15.47;;;0.50;99.90;;;;;;5015237;28;20510;-83
2021/03/19 08:44:40;;;;;;;35.27;14.90;;;0.70;99.90;;;;;;5014063;28;20630;-84
2021/03/19 08:47:29;;;;;;;28.90;14.40;;;1.40;99.90;;;;;;5013770;28;20717;-84
2021/03/19 08:50:09;;;;;;;33.23;13.57;;;0.60;99.90;;;;;;5013898;28;20181;-84
2021/03/19 08:52:37;;;;;;;34.37;14.37;;;1.30;99.90;;;;;;5015153;28;20224;-84
2021/03/19 08:55:12;;;;;;;29.30;14.43;;;1.20;99.90;;;;;;5015547;28;20291;-85
2021/03/19 08:57:40;;;;;;;29.10;14.60;;;0.50;99.90;;;;;;5014926;28;20173;-84
2021/03/19 09:00:14;;;;;;;28.20;13.80;;;0.70;99.90;;;;;;5015204;28;20173;-84
2021/03/19 09:02:47;;;;;;;28.90;12.93;;;0.50;99.90;;;;;;5015177;28;20161;-85
2021/03/19 09:05:22;;;;;;;30.47;14.10;;;0.60;99.90;;;;;;5015095;28;20653;-86
2021/03/19 09:08:12;;;;;;;31.80;14.17;;;0.60;99.90;;;;;;5015309;28;20585;-87
2021/03/19 09:10:37;;;;;;;36.73;15.07;;;0.60;99.90;;;;;;5014071;28;20177;-86
2021/03/19 09:13:08;;;;;;;51.17;18.33;;;1.10;99.90;;;;;;5013979;28;20177;-86
2021/03/19 09:15:36;;;;;;;41.23;20.47;;;0.80;99.90;;;;;;5015024;28;20193;-85
2021/03/19 09:18:04;;;;;;;24.77;11.77;;;0.90;99.90;;;;;;5015055;28;20204;-86
2021/03/19 09:20:39;;;;;;;20.80;10.53;;;1.10;99.90;;;;;;5014498;28;20177;-85
2021/03/19 09:23:11;;;;;;;24.50;12.33;;;1.10;99.90;;;;;;5013130;28;20341;-86
2021/03/19 09:25:47;;;;;;;23.47;12.20;;;1.00;99.90;;;;;;5014456;28;20180;-84
2021/03/19 09:28:56;;;;;;;26.20;11.80;;;1.10;99.90;;;;;;5013878;28;20226;-84
2021/03/19 09:31:25;;;;;;;24.40;11.50;;;1.20;99.90;;;;;;5013866;28;20165;-84
2021/03/19 09:33:50;;;;;;;26.43;10.87;;;2.60;99.90;;;;;;5014103;28;20360;-84
2021/03/19 09:36:52;;;;;;;26.03;12.40;;;2.10;99.90;;;;;;5012606;28;20610;-84
2021/03/19 09:39:43;;;;;;;19.10;10.63;;;1.40;99.90;;;;;;5013845;28;20194;-86
2021/03/19 09:42:18;;;;;;;25.40;11.17;;;1.40;99.90;;;;;;5014027;28;20199;-86
2021/03/19 09:45:01;;;;;;;21.33;10.53;;;1.40;99.90;;;;;;5012456;28;20193;-85
2021/03/19 09:47:31;;;;;;;19.57;10.10;;;1.40;99.90;;;;;;5016481;28;20169;-84
2021/03/19 09:50:11;;;;;;;26.13;12.40;;;1.30;99.90;;;;;;5022831;28;20186;-84
2021/03/19 09:52:39;;;;;;;23.60;11.47;;;2.20;99.90;;;;;;5024117;28;20641;-85
2021/03/19 09:55:16;;;;;;;24.90;11.67;;;1.80;99.90;;;;;;5014960;28;20213;-85
2021/03/19 09:57:43;;;;;;;22.73;11.57;;;2.00;99.90;;;;;;5013567;28;20267;-84
2021/03/19 10:00:21;;;;;;;21.30;10.73;;;2.00;99.90;;;;;;5014853;28;20214;-87
2021/03/19 10:02:47;;;;;;;26.80;11.13;;;1.80;99.90;;;;;;5024752;28;20189;-84
2021/03/19 10:05:25;;;;;;;24.30;12.23;;;1.70;99.90;;;;;;5026802;28;20677;-84
2021/03/19 10:07:54;;;;;;;22.97;11.13;;;1.60;99.90;;;;;;5023373;28;20556;-84
2021/03/19 10:10:28;;;;;;;28.97;12.50;;;1.60;99.90;;;;;;5026305;28;20188;-84
2021/03/19 10:13:16;;;;;;;25.03;12.70;;;1.50;99.90;;;;;;5029439;28;20512;-84
2021/03/19 10:15:45;;;;;;;23.67;12.83;;;1.40;99.90;;;;;;5031402;28;20263;-83
2021/03/19 10:18:32;;;;;;;17.93;10.00;;;2.50;99.90;;;;;;5031373;28;20185;-84
2021/03/19 10:21:23;;;;;;;26.60;11.47;;;1.20;99.90;;;;;;5031908;28;20176;-84
2021/03/19 10:24:01;;;;;;;24.10;10.60;;;2.30;99.90;;;;;;5026685;28;20192;-83
2021/03/19 10:26:49;;;;;;;21.83;10.33;;;2.20;99.90;;;;;;5031971;28;20188;-83
2021/03/19 10:29:22;;;;;;;25.47;9.77;;;1.40;99.90;;;;;;5032528;28;20172;-84
2021/03/19 10:31:54;;;;;;;16.93;7.23;;;1.90;99.90;;;;;;5031787;28;20272;-84
2021/03/19 10:34:29;;;;;;;30.80;10.50;;;0.90;99.90;;;;;;5032664;28;20203;-83
2021/03/19 10:37:12;;;;;;;32.73;12.67;;;1.00;99.90;;;;;;5032167;28;20183;-85
2021/03/19 10:39:46;;;;;;;23.17;8.53;;;1.00;99.90;;;;;;5032433;28;20161;-86
2021/03/19 10:42:24;;;;;;;16.40;8.53;;;1.10;99.90;;;;;;5033076;28;20181;-84
2021/03/19 10:45:14;;;;;;;13.50;7.03;;;1.20;99.90;;;;;;5032333;28;20538;-84
2021/03/19 10:47:47;;;;;;;17.43;8.63;;;1.50;99.90;;;;;;5032480;28;20281;-85
2021/03/19 10:50:21;;;;;;;22.10;9.77;;;1.70;99.90;;;;;;5032020;28;20204;-83
2021/03/19 10:52:58;;;;;;;18.37;9.67;;;1.80;99.90;;;;;;5030628;28;20177;-83
2021/03/19 10:55:30;;;;;;;25.33;10.87;;;2.60;99.90;;;;;;5030260;28;20206;-84
2021/03/19 10:58:22;;;;;;;32.50;12.47;;;1.90;99.90;;;;;;5031106;28;20175;-84
2021/03/19 11:00:50;;;;;;;21.27;10.60;;;1.80;99.90;;;;;;5031137;28;20184;-85
2021/03/19 11:03:31;;;;;;;18.37;9.30;;;2.60;99.90;;;;;;5031315;28;20236;-83
2021/03/19 11:05:59;;;;;;;19.30;8.87;;;2.80;99.90;;;;;;5032459;28;20260;-83
2021/03/19 11:08:26;;;;;;;16.20;7.63;;;2.50;99.90;;;;;;5031460;28;20177;-82
2021/03/19 11:10:53;;;;;;;14.87;7.97;;;1.90;99.90;;;;;;5022063;28;20185;-84
2021/03/19 11:13:37;;;;;;;18.03;9.73;;;2.00;99.90;;;;;;5022842;28;20193;-83
2021/03/19 11:16:06;;;;;;;17.73;8.77;;;2.10;99.90;;;;;;5027695;28;20196;-83
2021/03/19 11:18:38;;;;;;;21.60;10.33;;;2.10;99.90;;;;;;5022362;28;20189;-83
2021/03/19 11:21:07;;;;;;;19.53;9.13;;;2.20;99.90;;;;;;5022924;28;20681;-83
2021/03/19 11:23:37;;;;;;;16.93;8.83;;;2.30;99.90;;;;;;5022445;28;20506;-86
2021/03/19 11:26:31;;;;;;;24.63;9.80;;;2.30;99.90;;;;;;5022904;28;20168;-83
2021/03/19 11:29:34;;;;;;;19.87;10.23;;;2.30;99.90;;;;;;5019047;28;20196;-84
2021/03/19 11:32:15;;;;;;;19.00;8.63;;;2.20;99.90;;;;;;5022783;28;20177;-84
2021/03/19 11:34:52;;;;;;;18.87;9.70;;;2.30;99.90;;;;;;5022142;28;20200;-84
2021/03/19 11:37:29;;;;;;;18.60;9.27;;;2.20;99.90;;;;;;5022472;28;20576;-83
2021/03/19 11:40:03;;;;;;;22.57;9.60;;;2.80;99.90;;;;;;5027345;28;20642;-83
2021/03/19 11:42:59;;;;;;;16.50;9.33;;;3.70;99.90;;;;;;5032518;28;20170;-83
2021/03/19 11:45:37;;;;;;;13.53;8.10;;;2.20;99.90;;;;;;5031774;28;20220;-84
2021/03/19 11:48:36;;;;;;;13.47;7.27;;;2.20;99.90;;;;;;5023309;28;20200;-84
2021/03/19 11:51:27;;;;;;;16.33;8.73;;;2.10;99.90;;;;;;5025329;28;20185;-83
2021/03/19 11:53:53;;;;;;;10.73;5.77;;;1.90;99.90;;;;;;5024355;28;20635;-84
2021/03/19 11:56:19;;;;;;;11.83;6.67;;;1.90;99.90;;;;;;5023017;28;20606;-83
2021/03/19 11:58:45;;;;;;;9.77;6.47;;;2.00;99.90;;;;;;5023146;28;20263;-83
2021/03/19 12:01:10;;;;;;;12.57;7.27;;;2.10;99.90;;;;;;5025841;28;20580;-83
2021/03/19 12:03:50;;;;;;;16.23;8.40;;;2.80;99.90;;;;;;5025981;28;20232;-83
2021/03/19 12:06:20;;;;;;;13.93;7.70;;;2.30;99.90;;;;;;5029728;28;20170;-84
2021/03/19 12:08:46;;;;;;;12.37;7.10;;;2.30;99.90;;;;;;5026655;28;20172;-83
2021/03/19 12:11:21;;;;;;;16.70;7.50;;;2.50;99.90;;;;;;5029498;28;20567;-83
2021/03/19 12:13:47;;;;;;;14.00;7.67;;;2.70;99.90;;;;;;5030149;28;20238;-85
2021/03/19 12:16:13;;;;;;;14.47;6.83;;;2.90;99.90;;;;;;5024622;28;20729;-85
2021/03/19 12:18:39;;;;;;;12.50;7.30;;;3.10;99.90;;;;;;5025116;28;20185;-85
2021/03/19 12:21:05;;;;;;;13.30;6.67;;;3.20;99.40;;;;;;5026292;28;20572;-84
2021/03/19 12:23:30;;;;;;;17.70;9.13;;;3.30;99.90;;;;;;5023811;28;20177;-84
2021/03/19 12:25:57;;;;;;;14.97;7.00;;;3.70;98.70;;;;;;5024677;28;20185;-84
2021/03/19 12:28:23;;;;;;;12.07;5.83;;;3.60;94.80;;;;;;5025078;28;20173;-85
2021/03/19 12:30:52;;;;;;;8.37;5.53;;;3.30;96.80;;;;;;5024560;28;20176;-85
2021/03/19 12:33:19;;;;;;;16.50;8.50;;;3.80;95.70;;;;;;5024702;28;20184;-85
2021/03/19 12:35:45;;;;;;;10.43;5.90;;;3.40;96.40;;;;;;5023706;28;20201;-84
2021/03/19 12:38:12;;;;;;;11.90;6.90;;;3.10;96.40;;;;;;5035584;28;20694;-85
2021/03/19 12:40:38;;;;;;;14.73;6.63;;;3.60;99.10;;;;;;5034660;28;20209;-84
2021/03/19 12:43:08;;;;;;;10.83;6.13;;;2.90;98.30;;;;;;5033861;28;20626;-85
2021/03/19 12:45:34;;;;;;;16.23;7.80;;;3.00;97.10;;;;;;5033627;28;20181;-85
2021/03/19 12:48:01;;;;;;;9.73;5.17;;;3.20;95.80;;;;;;5033563;28;20209;-85
2021/03/19 12:50:28;;;;;;;10.40;5.70;;;3.20;89.10;;;;;;5033695;28;20196;-86
2021/03/19 12:52:57;;;;;;;10.23;5.73;;;3.10;90.40;;;;;;5033565;28;20551;-86
2021/03/19 12:55:24;;;;;;;16.50;7.70;;;3.20;91.40;;;;;;5033968;28;20274;-86
2021/03/19 12:57:50;;;;;;;15.70;7.10;;;3.30;92.40;;;;;;5033797;28;20185;-85
2021/03/19 13:00:23;;;;;;;26.13;9.63;;;3.80;91.70;;;;;;5035031;28;20177;-85
2021/03/19 13:02:49;;;;;;;17.37;7.43;;;3.40;91.70;;;;;;5033339;28;20177;-86
2021/03/19 13:05:16;;;;;;;8.37;5.07;;;4.20;92.00;;;;;;5035040;28;20184;-86
2021/03/19 13:07:42;;;;;;;11.33;5.63;;;3.30;82.00;;;;;;5034794;28;20205;-87